sensor_id;sensor_type;location;lat;lon;timestamp;temperature;humidity
66871;DHT22;53780;44.998;9.926;2023-09-19T00:00:43;21.59;76.17
66871;DHT22;53780;44.998;9.926;2023-09-19T00:03:47;21.59;76.49
66871;DHT22;53780;44.998;9.926;2023-09-19T00:06:51;21.59;76.72
66871;DHT22;53780;44.998;9.926;2023-09-19T00:09:57;21.55;76.71
66871;DHT22;53780;44.998;9.926;2023-09-19T00:13:02;21.49;76.80
66871;DHT22;53780;44.998;9.926;2023-09-19T00:16:11;21.39;77.38
66871;DHT22;53780;44.998;9.926;2023-09-19T00:19:15;21.39;77.56
66871;DHT22;53780;44.998;9.926;2023-09-19T00:22:22;21.44;77.59
66871;DHT22;53780;44.998;9.926;2023-09-19T00:25:26;21.45;77.52
66871;DHT22;53780;44.998;9.926;2023-09-19T00:28:30;21.48;77.53
66871;DHT22;53780;44.998;9.926;2023-09-19T00:31:35;21.51;77.57
66871;DHT22;53780;44.998;9.926;2023-09-19T00:34:41;21.48;77.65
66871;DHT22;53780;44.998;9.926;2023-09-19T00:37:46;21.48;77.86
66871;DHT22;53780;44.998;9.926;2023-09-19T00:40:50;21.44;77.73
66871;DHT22;53780;44.998;9.926;2023-09-19T00:43:57;21.44;77.79
66871;DHT22;53780;44.998;9.926;2023-09-19T00:47:01;21.44;77.65
66871;DHT22;53780;44.998;9.926;2023-09-19T00:50:06;21.44;77.44
66871;DHT22;53780;44.998;9.926;2023-09-19T00:53:14;21.42;77.66
66871;DHT22;53780;44.998;9.926;2023-09-19T00:56:19;21.42;78.16
66871;DHT22;53780;44.998;9.926;2023-09-19T00:59:24;21.45;78.27
66871;DHT22;53780;44.998;9.926;2023-09-19T01:02:28;21.44;78.61
66871;DHT22;53780;44.998;9.926;2023-09-19T01:05:33;21.42;78.77
66871;DHT22;53780;44.998;9.926;2023-09-19T01:08:38;21.44;78.93
66871;DHT22;53780;44.998;9.926;2023-09-19T01:11:46;21.45;79.01
66871;DHT22;53780;44.998;9.926;2023-09-19T01:14:55;21.41;79.05
66871;DHT22;53780;44.998;9.926;2023-09-19T01:28:32;21.42;79.07
66871;DHT22;53780;44.998;9.926;2023-09-19T01:31:42;21.45;78.39
66871;DHT22;53780;44.998;9.926;2023-09-19T01:35:04;21.44;78.03
66871;DHT22;53780;44.998;9.926;2023-09-19T01:38:08;21.44;78.36
66871;DHT22;53780;44.998;9.926;2023-09-19T01:41:18;21.39;78.66
66871;DHT22;53780;44.998;9.926;2023-09-19T01:44:43;21.32;76.89
66871;DHT22;53780;44.998;9.926;2023-09-19T01:47:52;21.24;75.15
66871;DHT22;53780;44.998;9.926;2023-09-19T01:51:01;21.10;74.34
66871;DHT22;53780;44.998;9.926;2023-09-19T01:54:11;21.04;74.92
66871;DHT22;53780;44.998;9.926;2023-09-19T01:57:29;20.96;75.67
66871;DHT22;53780;44.998;9.926;2023-09-19T02:00:37;20.91;76.17
66871;DHT22;53780;44.998;9.926;2023-09-19T02:03:43;20.93;76.78
66871;DHT22;53780;44.998;9.926;2023-09-19T02:06:49;20.89;77.04
66871;DHT22;53780;44.998;9.926;2023-09-19T02:09:53;20.86;76.62
66871;DHT22;53780;44.998;9.926;2023-09-19T02:12:57;20.83;76.30
66871;DHT22;53780;44.998;9.926;2023-09-19T02:16:01;20.76;75.79
66871;DHT22;53780;44.998;9.926;2023-09-19T02:19:05;20.69;75.81
66871;DHT22;53780;44.998;9.926;2023-09-19T02:22:09;20.63;75.68
66871;DHT22;53780;44.998;9.926;2023-09-19T02:25:13;20.59;75.73
66871;DHT22;53780;44.998;9.926;2023-09-19T02:28:18;20.61;75.97
66871;DHT22;53780;44.998;9.926;2023-09-19T02:31:21;20.55;76.34
66871;DHT22;53780;44.998;9.926;2023-09-19T02:34:25;20.49;76.64
66871;DHT22;53780;44.998;9.926;2023-09-19T02:37:30;20.48;76.63
66871;DHT22;53780;44.998;9.926;2023-09-19T02:40:34;20.46;76.78
66871;DHT22;53780;44.998;9.926;2023-09-19T02:43:39;20.44;77.40
66871;DHT22;53780;44.998;9.926;2023-09-19T02:46:42;20.44;77.47
66871;DHT22;53780;44.998;9.926;2023-09-19T02:49:46;20.39;77.69
66871;DHT22;53780;44.998;9.926;2023-09-19T02:52:50;20.35;77.74
66871;DHT22;53780;44.998;9.926;2023-09-19T02:55:54;20.31;77.81
66871;DHT22;53780;44.998;9.926;2023-09-19T02:58:59;20.32;77.56
66871;DHT22;53780;44.998;9.926;2023-09-19T03:02:04;20.29;77.81
66871;DHT22;53780;44.998;9.926;2023-09-19T03:05:09;20.20;78.13
66871;DHT22;53780;44.998;9.926;2023-09-19T03:08:16;20.20;78.53
66871;DHT22;53780;44.998;9.926;2023-09-19T03:11:20;20.20;79.28
66871;DHT22;53780;44.998;9.926;2023-09-19T03:14:28;20.18;79.50
66871;DHT22;53780;44.998;9.926;2023-09-19T03:17:36;20.14;79.76
66871;DHT22;53780;44.998;9.926;2023-09-19T03:20:40;20.14;79.87
66871;DHT22;53780;44.998;9.926;2023-09-19T03:23:44;20.10;79.95
66871;DHT22;53780;44.998;9.926;2023-09-19T03:26:49;20.08;80.30
66871;DHT22;53780;44.998;9.926;2023-09-19T03:29:53;20.06;80.18
66871;DHT22;53780;44.998;9.926;2023-09-19T03:32:57;20.04;80.44
66871;DHT22;53780;44.998;9.926;2023-09-19T03:36:02;20.03;80.76
66871;DHT22;53780;44.998;9.926;2023-09-19T03:39:09;20.01;81.01
66871;DHT22;53780;44.998;9.926;2023-09-19T03:42:14;20.03;81.32
66871;DHT22;53780;44.998;9.926;2023-09-19T03:45:18;20.03;81.66
66871;DHT22;53780;44.998;9.926;2023-09-19T03:48:28;20.01;81.99
66871;DHT22;53780;44.998;9.926;2023-09-19T03:51:33;20.01;82.26
66871;DHT22;53780;44.998;9.926;2023-09-19T03:54:38;20.04;82.47
66871;DHT22;53780;44.998;9.926;2023-09-19T03:57:48;20.03;83.26
66871;DHT22;53780;44.998;9.926;2023-09-19T04:00:55;20.04;83.51
66871;DHT22;53780;44.998;9.926;2023-09-19T04:03:59;20.03;83.40
66871;DHT22;53780;44.998;9.926;2023-09-19T04:07:12;20.00;83.35
66871;DHT22;53780;44.998;9.926;2023-09-19T04:10:16;20.03;83.58
66871;DHT22;53780;44.998;9.926;2023-09-19T04:13:20;20.03;84.04
66871;DHT22;53780;44.998;9.926;2023-09-19T04:16:25;20.03;84.12
66871;DHT22;53780;44.998;9.926;2023-09-19T04:19:28;20.04;84.14
66871;DHT22;53780;44.998;9.926;2023-09-19T04:22:32;19.98;84.32
66871;DHT22;53780;44.998;9.926;2023-09-19T04:25:36;19.98;84.62
66871;DHT22;53780;44.998;9.926;2023-09-19T04:28:40;19.96;84.51
66871;DHT22;53780;44.998;9.926;2023-09-19T04:31:44;20.01;84.44
66871;DHT22;53780;44.998;9.926;2023-09-19T04:34:49;20.01;84.17
66871;DHT22;53780;44.998;9.926;2023-09-19T04:37:53;20.01;84.32
66871;DHT22;53780;44.998;9.926;2023-09-19T04:40:58;20.01;84.12
66871;DHT22;53780;44.998;9.926;2023-09-19T04:44:05;20.04;84.22
66871;DHT22;53780;44.998;9.926;2023-09-19T04:47:09;20.06;84.37
66871;DHT22;53780;44.998;9.926;2023-09-19T04:50:15;20.06;84.20
66871;DHT22;53780;44.998;9.926;2023-09-19T04:53:20;20.04;84.02
66871;DHT22;53780;44.998;9.926;2023-09-19T04:56:25;19.97;83.52
66871;DHT22;53780;44.998;9.926;2023-09-19T04:59:28;19.86;81.74
66871;DHT22;53780;44.998;9.926;2023-09-19T05:02:32;19.80;81.62
66871;DHT22;53780;44.998;9.926;2023-09-19T05:05:38;19.80;81.78
66871;DHT22;53780;44.998;9.926;2023-09-19T05:08:42;19.80;81.73
66871;DHT22;53780;44.998;9.926;2023-09-19T05:11:46;19.77;81.03
66871;DHT22;53780;44.998;9.926;2023-09-19T05:14:50;19.77;81.30
66871;DHT22;53780;44.998;9.926;2023-09-19T05:17:54;19.74;81.35
66871;DHT22;53780;44.998;9.926;2023-09-19T05:21:02;19.74;81.37
66871;DHT22;53780;44.998;9.926;2023-09-19T05:24:06;19.73;81.66
66871;DHT22;53780;44.998;9.926;2023-09-19T05:27:09;19.79;82.16
66871;DHT22;53780;44.998;9.926;2023-09-19T05:30:13;19.79;82.38
66871;DHT22;53780;44.998;9.926;2023-09-19T05:33:19;19.83;82.60
66871;DHT22;53780;44.998;9.926;2023-09-19T05:36:23;19.87;82.76
66871;DHT22;53780;44.998;9.926;2023-09-19T05:39:27;19.91;82.84
66871;DHT22;53780;44.998;9.926;2023-09-19T05:42:30;19.97;82.77
66871;DHT22;53780;44.998;9.926;2023-09-19T05:45:34;20.04;83.39
66871;DHT22;53780;44.998;9.926;2023-09-19T05:48:40;20.08;84.10
66871;DHT22;53780;44.998;9.926;2023-09-19T05:51:45;20.21;84.44
66871;DHT22;53780;44.998;9.926;2023-09-19T05:54:49;20.31;84.83
66871;DHT22;53780;44.998;9.926;2023-09-19T05:57:53;20.41;84.91
66871;DHT22;53780;44.998;9.926;2023-09-19T06:00:57;20.55;84.81
66871;DHT22;53780;44.998;9.926;2023-09-19T06:04:02;20.69;84.19
66871;DHT22;53780;44.998;9.926;2023-09-19T06:07:07;20.86;83.59
66871;DHT22;53780;44.998;9.926;2023-09-19T06:10:12;21.00;83.45
66871;DHT22;53780;44.998;9.926;2023-09-19T06:13:16;21.14;82.94
66871;DHT22;53780;44.998;9.926;2023-09-19T06:16:20;21.27;82.18
66871;DHT22;53780;44.998;9.926;2023-09-19T06:19:23;21.42;81.77
66871;DHT22;53780;44.998;9.926;2023-09-19T06:22:29;21.52;81.64
66871;DHT22;53780;44.998;9.926;2023-09-19T06:25:32;21.67;81.45
66871;DHT22;53780;44.998;9.926;2023-09-19T06:28:36;21.82;81.23
66871;DHT22;53780;44.998;9.926;2023-09-19T06:31:40;21.96;81.23
66871;DHT22;53780;44.998;9.926;2023-09-19T06:34:44;22.04;81.08
66871;DHT22;53780;44.998;9.926;2023-09-19T06:37:50;22.16;81.14
66871;DHT22;53780;44.998;9.926;2023-09-19T06:40:54;22.25;81.51
66871;DHT22;53780;44.998;9.926;2023-09-19T06:43:58;22.36;81.25
66871;DHT22;53780;44.998;9.926;2023-09-19T06:47:02;22.51;81.32
66871;DHT22;53780;44.998;9.926;2023-09-19T06:50:07;22.62;80.83
66871;DHT22;53780;44.998;9.926;2023-09-19T06:53:16;22.73;80.61
66871;DHT22;53780;44.998;9.926;2023-09-19T06:56:21;22.81;80.56
66871;DHT22;53780;44.998;9.926;2023-09-19T06:59:28;22.98;80.10
66871;DHT22;53780;44.998;9.926;2023-09-19T07:02:32;23.10;79.76
66871;DHT22;53780;44.998;9.926;2023-09-19T07:05:36;23.19;78.92
66871;DHT22;53780;44.998;9.926;2023-09-19T07:08:40;23.26;78.93
66871;DHT22;53780;44.998;9.926;2023-09-19T07:11:44;23.46;78.96
66871;DHT22;53780;44.998;9.926;2023-09-19T07:14:48;23.77;78.22
66871;DHT22;53780;44.998;9.926;2023-09-19T07:17:53;24.15;77.04
66871;DHT22;53780;44.998;9.926;2023-09-19T07:20:58;24.64;75.77
66871;DHT22;53780;44.998;9.926;2023-09-19T07:24:08;25.07;73.67
66871;DHT22;53780;44.998;9.926;2023-09-19T07:27:12;25.37;72.99
66871;DHT22;53780;44.998;9.926;2023-09-19T07:30:15;25.81;71.91
66871;DHT22;53780;44.998;9.926;2023-09-19T07:33:20;26.36;69.97
66871;DHT22;53780;44.998;9.926;2023-09-19T07:36:24;26.94;68.60
66871;DHT22;53780;44.998;9.926;2023-09-19T07:39:28;27.56;66.28
66871;DHT22;53780;44.998;9.926;2023-09-19T07:42:33;28.07;63.81
66871;DHT22;53780;44.998;9.926;2023-09-19T07:45:38;28.62;62.79
66871;DHT22;53780;44.998;9.926;2023-09-19T07:48:42;29.10;61.09
66871;DHT22;53780;44.998;9.926;2023-09-19T07:51:51;29.51;59.21
66871;DHT22;53780;44.998;9.926;2023-09-19T07:54:56;29.92;59.08
66871;DHT22;53780;44.998;9.926;2023-09-19T07:58:01;30.34;57.09
66871;DHT22;53780;44.998;9.926;2023-09-19T08:01:08;30.67;55.69
66871;DHT22;53780;44.998;9.926;2023-09-19T08:04:16;30.99;55.06
66871;DHT22;53780;44.998;9.926;2023-09-19T08:07:20;31.34;54.99
66871;DHT22;53780;44.998;9.926;2023-09-19T08:10:23;31.61;53.89
66871;DHT22;53780;44.998;9.926;2023-09-19T08:13:31;31.85;53.36
66871;DHT22;53780;44.998;9.926;2023-09-19T08:16:35;32.13;53.16
66871;DHT22;53780;44.998;9.926;2023-09-19T08:19:39;32.43;52.31
66871;DHT22;53780;44.998;9.926;2023-09-19T08:22:53;32.67;51.88
66871;DHT22;53780;44.998;9.926;2023-09-19T08:25:58;32.94;51.02
66871;DHT22;53780;44.998;9.926;2023-09-19T08:29:03;33.11;50.70
66871;DHT22;53780;44.998;9.926;2023-09-19T08:32:08;33.32;50.72
66871;DHT22;53780;44.998;9.926;2023-09-19T08:35:12;33.56;49.97
66871;DHT22;53780;44.998;9.926;2023-09-19T08:38:15;33.74;49.37
66871;DHT22;53780;44.998;9.926;2023-09-19T08:43:51;33.98;47.43
66871;DHT22;53780;44.998;9.926;2023-09-19T08:47:09;34.21;46.64
66871;DHT22;53780;44.998;9.926;2023-09-19T08:50:27;34.34;47.38
66871;DHT22;53780;44.998;9.926;2023-09-19T08:57:00;34.52;46.53
66871;DHT22;53780;44.998;9.926;2023-09-19T09:00:06;34.71;46.54
66871;DHT22;53780;44.998;9.926;2023-09-19T09:03:14;34.96;45.49
66871;DHT22;53780;44.998;9.926;2023-09-19T09:06:23;35.09;44.53
66871;DHT22;53780;44.998;9.926;2023-09-19T09:09:28;35.17;45.26
66871;DHT22;53780;44.998;9.926;2023-09-19T09:12:32;35.24;46.20
66871;DHT22;53780;44.998;9.926;2023-09-19T09:15:36;35.34;45.11
66871;DHT22;53780;44.998;9.926;2023-09-19T09:18:40;35.41;43.43
66871;DHT22;53780;44.998;9.926;2023-09-19T09:21:45;35.53;44.46
66871;DHT22;53780;44.998;9.926;2023-09-19T09:24:56;35.58;44.45
66871;DHT22;53780;44.998;9.926;2023-09-19T09:28:02;35.66;44.15
66871;DHT22;53780;44.998;9.926;2023-09-19T09:31:22;35.82;43.26
66871;DHT22;53780;44.998;9.926;2023-09-19T09:34:33;35.80;42.52
66871;DHT22;53780;44.998;9.926;2023-09-19T09:37:37;35.66;42.06
66871;DHT22;53780;44.998;9.926;2023-09-19T09:40:52;35.81;42.27
66871;DHT22;53780;44.998;9.926;2023-09-19T09:44:15;35.98;41.89
66871;DHT22;53780;44.998;9.926;2023-09-19T09:47:41;36.13;42.48
66871;DHT22;53780;44.998;9.926;2023-09-19T09:50:47;36.33;40.68
66871;DHT22;53780;44.998;9.926;2023-09-19T09:54:09;36.48;40.98
66871;DHT22;53780;44.998;9.926;2023-09-19T09:57:15;36.57;39.81
66871;DHT22;53780;44.998;9.926;2023-09-19T10:00:26;36.57;40.85
66871;DHT22;53780;44.998;9.926;2023-09-19T10:03:38;36.60;40.73
66871;DHT22;53780;44.998;9.926;2023-09-19T10:06:47;36.58;40.28
66871;DHT22;53780;44.998;9.926;2023-09-19T10:09:51;36.51;40.22
66871;DHT22;53780;44.998;9.926;2023-09-19T10:12:58;36.47;40.69
66871;DHT22;53780;44.998;9.926;2023-09-19T10:16:07;36.47;41.42
66871;DHT22;53780;44.998;9.926;2023-09-19T10:19:30;36.58;40.48
66871;DHT22;53780;44.998;9.926;2023-09-19T10:22:38;36.56;40.87
66871;DHT22;53780;44.998;9.926;2023-09-19T10:25:45;36.41;40.43
66871;DHT22;53780;44.998;9.926;2023-09-19T10:28:51;36.44;41.40
66871;DHT22;53780;44.998;9.926;2023-09-19T10:31:58;36.36;39.77
66871;DHT22;53780;44.998;9.926;2023-09-19T10:35:02;36.33;39.97
66871;DHT22;53780;44.998;9.926;2023-09-19T10:38:13;36.27;40.04
66871;DHT22;53780;44.998;9.926;2023-09-19T10:41:19;36.22;39.60
66871;DHT22;53780;44.998;9.926;2023-09-19T10:44:25;36.19;40.41
66871;DHT22;53780;44.998;9.926;2023-09-19T10:47:29;36.08;41.22
66871;DHT22;53780;44.998;9.926;2023-09-19T10:50:46;36.10;40.75
66871;DHT22;53780;44.998;9.926;2023-09-19T10:54:10;36.05;41.64
66871;DHT22;53780;44.998;9.926;2023-09-19T10:57:24;36.02;40.74
66871;DHT22;53780;44.998;9.926;2023-09-19T11:00:29;35.95;41.23
66871;DHT22;53780;44.998;9.926;2023-09-19T11:03:41;35.91;40.85
66871;DHT22;53780;44.998;9.926;2023-09-19T11:10:06;35.68;41.54
66871;DHT22;53780;44.998;9.926;2023-09-19T11:13:25;35.70;41.11
66871;DHT22;53780;44.998;9.926;2023-09-19T11:16:34;35.62;41.51
66871;DHT22;53780;44.998;9.926;2023-09-19T11:23:18;35.43;42.83
66871;DHT22;53780;44.998;9.926;2023-09-19T11:26:57;35.33;42.27
66871;DHT22;53780;44.998;9.926;2023-09-19T11:30:27;35.24;42.84
66871;DHT22;53780;44.998;9.926;2023-09-19T11:33:34;35.13;42.45
66871;DHT22;53780;44.998;9.926;2023-09-19T11:36:40;34.99;43.01
66871;DHT22;53780;44.998;9.926;2023-09-19T11:40:10;34.88;43.69
66871;DHT22;53780;44.998;9.926;2023-09-19T11:43:30;34.76;43.69
66871;DHT22;53780;44.998;9.926;2023-09-19T11:46:54;34.73;43.87
66871;DHT22;53780;44.998;9.926;2023-09-19T11:50:01;34.63;43.22
66871;DHT22;53780;44.998;9.926;2023-09-19T11:53:05;34.54;43.04
66871;DHT22;53780;44.998;9.926;2023-09-19T11:56:10;34.41;44.38
66871;DHT22;53780;44.998;9.926;2023-09-19T11:59:22;34.25;43.47
66871;DHT22;53780;44.998;9.926;2023-09-19T12:02:39;34.01;44.78
66871;DHT22;53780;44.998;9.926;2023-09-19T12:05:44;33.85;43.90
66871;DHT22;53780;44.998;9.926;2023-09-19T12:08:48;33.70;44.29
66871;DHT22;53780;44.998;9.926;2023-09-19T12:11:53;33.56;43.44
66871;DHT22;53780;44.998;9.926;2023-09-19T12:14:57;33.41;45.15
66871;DHT22;53780;44.998;9.926;2023-09-19T12:18:03;33.28;44.55
66871;DHT22;53780;44.998;9.926;2023-09-19T12:21:07;33.17;45.26
66871;DHT22;53780;44.998;9.926;2023-09-19T12:24:16;33.04;45.09
66871;DHT22;53780;44.998;9.926;2023-09-19T12:27:23;32.90;44.56
66871;DHT22;53780;44.998;9.926;2023-09-19T12:30:29;32.81;45.14
66871;DHT22;53780;44.998;9.926;2023-09-19T12:33:37;32.67;44.74
66871;DHT22;53780;44.998;9.926;2023-09-19T12:36:43;32.56;45.99
66871;DHT22;53780;44.998;9.926;2023-09-19T12:39:49;32.40;45.34
66871;DHT22;53780;44.998;9.926;2023-09-19T12:42:54;32.35;45.72
66871;DHT22;53780;44.998;9.926;2023-09-19T12:45:59;32.23;46.07
66871;DHT22;53780;44.998;9.926;2023-09-19T12:49:19;32.16;46.33
66871;DHT22;53780;44.998;9.926;2023-09-19T12:52:23;32.11;46.12
66871;DHT22;53780;44.998;9.926;2023-09-19T12:55:30;32.02;46.58
66871;DHT22;53780;44.998;9.926;2023-09-19T13:02:05;31.84;45.93
66871;DHT22;53780;44.998;9.926;2023-09-19T13:05:10;31.74;45.84
66871;DHT22;53780;44.998;9.926;2023-09-19T13:08:25;31.66;45.68
66871;DHT22;53780;44.998;9.926;2023-09-19T13:11:38;31.58;46.03
66871;DHT22;53780;44.998;9.926;2023-09-19T13:14:46;31.47;47.04
66871;DHT22;53780;44.998;9.926;2023-09-19T13:17:52;31.43;47.10
66871;DHT22;53780;44.998;9.926;2023-09-19T13:21:11;31.36;47.01
66871;DHT22;53780;44.998;9.926;2023-09-19T13:24:27;31.27;46.99
66871;DHT22;53780;44.998;9.926;2023-09-19T13:27:31;31.23;46.75
66871;DHT22;53780;44.998;9.926;2023-09-19T13:30:37;31.18;46.64
66871;DHT22;53780;44.998;9.926;2023-09-19T13:33:44;31.13;47.11
66871;DHT22;53780;44.998;9.926;2023-09-19T13:36:51;31.08;47.00
66871;DHT22;53780;44.998;9.926;2023-09-19T13:39:55;31.02;46.63
66871;DHT22;53780;44.998;9.926;2023-09-19T13:43:03;30.96;46.29
66871;DHT22;53780;44.998;9.926;2023-09-19T13:46:10;30.86;46.24
66871;DHT22;53780;44.998;9.926;2023-09-19T13:49:18;30.81;46.35
66871;DHT22;53780;44.998;9.926;2023-09-19T13:52:22;30.74;45.53
66871;DHT22;53780;44.998;9.926;2023-09-19T13:55:26;30.68;46.23
66871;DHT22;53780;44.998;9.926;2023-09-19T13:58:30;30.61;46.37
66871;DHT22;53780;44.998;9.926;2023-09-19T14:01:37;30.58;46.70
66871;DHT22;53780;44.998;9.926;2023-09-19T14:04:40;30.51;47.10
66871;DHT22;53780;44.998;9.926;2023-09-19T14:07:44;30.49;47.26
66871;DHT22;53780;44.998;9.926;2023-09-19T14:10:49;30.45;47.83
66871;DHT22;53780;44.998;9.926;2023-09-19T14:13:53;30.41;46.93
66871;DHT22;53780;44.998;9.926;2023-09-19T14:16:57;30.34;47.54
66871;DHT22;53780;44.998;9.926;2023-09-19T14:20:04;30.30;48.09
66871;DHT22;53780;44.998;9.926;2023-09-19T14:23:10;30.27;47.53
66871;DHT22;53780;44.998;9.926;2023-09-19T14:26:14;30.24;46.94
66871;DHT22;53780;44.998;9.926;2023-09-19T14:29:19;30.17;47.72
66871;DHT22;53780;44.998;9.926;2023-09-19T14:32:23;30.14;47.37
66871;DHT22;53780;44.998;9.926;2023-09-19T14:35:27;30.10;47.53
66871;DHT22;53780;44.998;9.926;2023-09-19T14:38:30;30.09;47.61
66871;DHT22;53780;44.998;9.926;2023-09-19T14:41:37;30.03;47.61
66871;DHT22;53780;44.998;9.926;2023-09-19T14:44:40;30.02;47.59
66871;DHT22;53780;44.998;9.926;2023-09-19T14:47:46;29.98;47.27
66871;DHT22;53780;44.998;9.926;2023-09-19T14:50:50;29.98;47.45
66871;DHT22;53780;44.998;9.926;2023-09-19T14:53:54;29.92;47.49
66871;DHT22;53780;44.998;9.926;2023-09-19T14:56:59;29.89;47.92
66871;DHT22;53780;44.998;9.926;2023-09-19T15:00:09;29.88;47.01
66871;DHT22;53780;44.998;9.926;2023-09-19T15:03:15;29.83;47.20
66871;DHT22;53780;44.998;9.926;2023-09-19T15:06:18;29.79;46.92
66871;DHT22;53780;44.998;9.926;2023-09-19T15:09:24;29.76;47.01
66871;DHT22;53780;44.998;9.926;2023-09-19T15:12:29;29.72;47.17
66871;DHT22;53780;44.998;9.926;2023-09-19T15:15:33;29.72;46.89
66871;DHT22;53780;44.998;9.926;2023-09-19T15:18:38;29.71;47.10
66871;DHT22;53780;44.998;9.926;2023-09-19T15:21:43;29.66;47.35
66871;DHT22;53780;44.998;9.926;2023-09-19T15:24:47;29.64;47.23
66871;DHT22;53780;44.998;9.926;2023-09-19T15:27:51;29.61;47.31
66871;DHT22;53780;44.998;9.926;2023-09-19T15:31:06;29.64;46.61
66871;DHT22;53780;44.998;9.926;2023-09-19T15:34:10;29.58;47.28
66871;DHT22;53780;44.998;9.926;2023-09-19T15:37:17;29.55;48.06
66871;DHT22;53780;44.998;9.926;2023-09-19T15:40:22;29.54;47.64
66871;DHT22;53780;44.998;9.926;2023-09-19T15:43:27;29.50;48.21
66871;DHT22;53780;44.998;9.926;2023-09-19T15:46:32;29.48;47.77
66871;DHT22;53780;44.998;9.926;2023-09-19T15:49:39;29.44;48.16
66871;DHT22;53780;44.998;9.926;2023-09-19T15:52:44;29.39;48.18
66871;DHT22;53780;44.998;9.926;2023-09-19T15:55:47;29.35;48.40
66871;DHT22;53780;44.998;9.926;2023-09-19T15:58:52;29.34;48.90
66871;DHT22;53780;44.998;9.926;2023-09-19T16:01:58;29.28;47.59
66871;DHT22;53780;44.998;9.926;2023-09-19T16:05:02;29.21;48.03
66871;DHT22;53780;44.998;9.926;2023-09-19T16:08:09;29.14;47.88
66871;DHT22;53780;44.998;9.926;2023-09-19T16:11:14;29.07;48.26
66871;DHT22;53780;44.998;9.926;2023-09-19T16:14:22;28.96;48.23
66871;DHT22;53780;44.998;9.926;2023-09-19T16:17:25;28.88;47.54
66871;DHT22;53780;44.998;9.926;2023-09-19T16:20:30;28.82;47.33
66871;DHT22;53780;44.998;9.926;2023-09-19T16:23:34;28.76;47.43
66871;DHT22;53780;44.998;9.926;2023-09-19T16:26:38;28.73;47.47
66871;DHT22;53780;44.998;9.926;2023-09-19T16:29:42;28.66;47.69
66871;DHT22;53780;44.998;9.926;2023-09-19T16:32:46;28.59;48.22
66871;DHT22;53780;44.998;9.926;2023-09-19T16:35:49;28.47;48.64
66871;DHT22;53780;44.998;9.926;2023-09-19T16:38:53;28.37;49.02
66871;DHT22;53780;44.998;9.926;2023-09-19T16:41:57;28.29;49.39
66871;DHT22;53780;44.998;9.926;2023-09-19T16:45:01;28.21;50.00
66871;DHT22;53780;44.998;9.926;2023-09-19T16:48:05;28.15;50.08
66871;DHT22;53780;44.998;9.926;2023-09-19T16:51:10;28.11;50.24
66871;DHT22;53780;44.998;9.926;2023-09-19T16:54:14;28.07;50.47
66871;DHT22;53780;44.998;9.926;2023-09-19T16:57:18;28.04;50.47
66871;DHT22;53780;44.998;9.926;2023-09-19T17:00:22;27.96;50.20
66871;DHT22;53780;44.998;9.926;2023-09-19T17:03:28;27.92;50.15
66871;DHT22;53780;44.998;9.926;2023-09-19T17:06:32;27.87;50.02
66871;DHT22;53780;44.998;9.926;2023-09-19T17:09:36;27.82;50.16
66871;DHT22;53780;44.998;9.926;2023-09-19T17:12:39;27.79;50.34
66871;DHT22;53780;44.998;9.926;2023-09-19T17:15:43;27.76;50.40
66871;DHT22;53780;44.998;9.926;2023-09-19T17:18:52;27.71;50.56
66871;DHT22;53780;44.998;9.926;2023-09-19T17:21:58;27.70;50.76
66871;DHT22;53780;44.998;9.926;2023-09-19T17:25:02;27.67;51.04
66871;DHT22;53780;44.998;9.926;2023-09-19T17:28:06;27.62;51.25
66871;DHT22;53780;44.998;9.926;2023-09-19T17:31:18;27.53;51.30
66871;DHT22;53780;44.998;9.926;2023-09-19T17:34:22;27.48;51.52
66871;DHT22;53780;44.998;9.926;2023-09-19T17:37:26;27.43;51.92
66871;DHT22;53780;44.998;9.926;2023-09-19T17:40:29;27.39;51.84
66871;DHT22;53780;44.998;9.926;2023-09-19T17:43:36;27.35;51.99
66871;DHT22;53780;44.998;9.926;2023-09-19T17:46:41;27.31;52.16
66871;DHT22;53780;44.998;9.926;2023-09-19T17:49:45;27.28;52.14
66871;DHT22;53780;44.998;9.926;2023-09-19T17:52:52;27.25;52.14
66871;DHT22;53780;44.998;9.926;2023-09-19T17:55:56;27.24;52.51
66871;DHT22;53780;44.998;9.926;2023-09-19T17:59:00;27.18;52.63
66871;DHT22;53780;44.998;9.926;2023-09-19T18:02:04;27.12;52.62
66871;DHT22;53780;44.998;9.926;2023-09-19T18:05:07;27.05;52.82
66871;DHT22;53780;44.998;9.926;2023-09-19T18:08:11;26.98;53.28
66871;DHT22;53780;44.998;9.926;2023-09-19T18:11:18;26.91;53.46
66871;DHT22;53780;44.998;9.926;2023-09-19T18:14:25;26.84;53.60
66871;DHT22;53780;44.998;9.926;2023-09-19T18:17:29;26.80;53.78
66871;DHT22;53780;44.998;9.926;2023-09-19T18:20:34;26.77;53.85
66871;DHT22;53780;44.998;9.926;2023-09-19T18:23:37;26.74;54.04
66871;DHT22;53780;44.998;9.926;2023-09-19T18:26:42;26.70;54.40
66871;DHT22;53780;44.998;9.926;2023-09-19T18:29:46;26.61;54.88
66871;DHT22;53780;44.998;9.926;2023-09-19T18:32:50;26.50;53.90
66871;DHT22;53780;44.998;9.926;2023-09-19T18:36:00;26.43;53.59
66871;DHT22;53780;44.998;9.926;2023-09-19T18:39:05;26.36;53.55
66871;DHT22;53780;44.998;9.926;2023-09-19T18:42:11;26.31;53.98
66871;DHT22;53780;44.998;9.926;2023-09-19T18:45:15;26.25;54.84
66871;DHT22;53780;44.998;9.926;2023-09-19T18:48:19;26.21;55.64
66871;DHT22;53780;44.998;9.926;2023-09-19T18:51:23;26.14;55.77
66871;DHT22;53780;44.998;9.926;2023-09-19T18:54:28;26.06;56.15
66871;DHT22;53780;44.998;9.926;2023-09-19T18:57:32;26.06;56.13
66871;DHT22;53780;44.998;9.926;2023-09-19T19:00:38;26.06;55.70
66871;DHT22;53780;44.998;9.926;2023-09-19T19:03:41;26.06;54.90
66871;DHT22;53780;44.998;9.926;2023-09-19T19:06:45;26.04;53.88
66871;DHT22;53780;44.998;9.926;2023-09-19T19:09:49;26.00;53.37
66871;DHT22;53780;44.998;9.926;2023-09-19T19:12:53;25.98;53.43
66871;DHT22;53780;44.998;9.926;2023-09-19T19:15:57;25.94;52.95
66871;DHT22;53780;44.998;9.926;2023-09-19T19:19:02;25.92;52.25
66871;DHT22;53780;44.998;9.926;2023-09-19T19:22:07;25.97;51.85
66871;DHT22;53780;44.998;9.926;2023-09-19T19:25:11;25.92;51.64
66871;DHT22;53780;44.998;9.926;2023-09-19T19:28:15;25.92;51.86
66871;DHT22;53780;44.998;9.926;2023-09-19T19:31:21;25.88;52.23
66871;DHT22;53780;44.998;9.926;2023-09-19T19:34:27;25.83;52.17
66871;DHT22;53780;44.998;9.926;2023-09-19T19:37:30;25.80;52.43
66871;DHT22;53780;44.998;9.926;2023-09-19T19:40:34;25.74;53.09
66871;DHT22;53780;44.998;9.926;2023-09-19T19:43:38;25.71;53.97
66871;DHT22;53780;44.998;9.926;2023-09-19T19:46:44;25.67;55.35
66871;DHT22;53780;44.998;9.926;2023-09-19T19:49:47;25.66;56.94
66871;DHT22;53780;44.998;9.926;2023-09-19T19:52:54;25.63;58.32
66871;DHT22;53780;44.998;9.926;2023-09-19T19:56:00;25.57;59.15
66871;DHT22;53780;44.998;9.926;2023-09-19T19:59:04;25.49;59.29
66871;DHT22;53780;44.998;9.926;2023-09-19T20:02:07;25.46;58.98